createdAt,value
2023-03-14T00:02:59.909Z,1.20
2023-03-14T00:08:08.464Z,1.10
2023-03-14T00:13:16.389Z,1.30
2023-03-14T00:18:21.800Z,1.80
2023-03-14T00:23:26.930Z,2.27
2023-03-14T00:28:34.735Z,2.60
2023-03-14T00:33:40.587Z,2.40
2023-03-14T00:38:46.732Z,2.60
2023-03-14T00:43:55.206Z,1.97
2023-03-14T00:49:00.414Z,2.40
2023-03-14T00:54:07.834Z,2.70
2023-03-14T00:59:19.155Z,2.47
2023-03-14T01:04:25.199Z,2.20
2023-03-14T01:09:30.445Z,2.10
2023-03-14T01:14:38.586Z,2.30
2023-03-14T01:19:43.799Z,2.10
2023-03-14T01:24:50.558Z,2.63
2023-03-14T01:29:58.896Z,2.80
2023-03-14T01:35:07.784Z,3.27
2023-03-14T01:40:17.779Z,3.40
2023-03-14T01:45:53.534Z,3.23
2023-03-14T01:51:06.446Z,3.67
2023-03-14T01:56:13.141Z,3.63
2023-03-14T02:01:21.126Z,3.33
2023-03-14T02:06:33.377Z,3.30
2023-03-14T02:11:40.673Z,3.50
2023-03-14T02:16:54.306Z,3.33
2023-03-14T02:22:28.870Z,3.27
2023-03-14T02:27:42.353Z,2.60
2023-03-14T02:32:53.041Z,2.10
2023-03-14T02:38:04.404Z,2.40
2023-03-14T02:43:22.053Z,1.93
2023-03-14T02:48:42.378Z,1.83
2023-03-14T02:53:51.741Z,1.70
2023-03-14T02:59:04.439Z,1.23
2023-03-14T03:04:35.711Z,1.20
2023-03-14T03:09:40.656Z,1.00
2023-03-14T03:14:48.504Z,1.10
2023-03-14T03:19:54.007Z,0.80
2023-03-14T03:24:58.891Z,0.80
2023-03-14T03:30:08.296Z,0.90
2023-03-14T03:35:33.250Z,0.73
2023-03-14T03:40:43.144Z,0.67
2023-03-14T03:45:52.260Z,0.90
2023-03-14T03:50:59.216Z,0.90
2023-03-14T03:56:04.876Z,0.60
2023-03-14T04:01:13.269Z,0.80
2023-03-14T04:06:19.405Z,0.80
2023-03-14T04:11:26.585Z,0.80
2023-03-14T04:16:57.994Z,0.80
2023-03-14T04:22:04.334Z,0.70
2023-03-14T04:27:18.503Z,0.90
2023-03-14T04:32:39.238Z,0.60
2023-03-14T04:37:44.935Z,0.67
2023-03-14T04:42:59.094Z,0.70
2023-03-14T04:48:13.588Z,0.53
2023-03-14T04:53:22.368Z,0.53
2023-03-14T04:58:29.809Z,0.97
2023-03-14T05:03:40.976Z,0.90
2023-03-14T05:09:06.476Z,0.60
2023-03-14T05:14:21.624Z,1.10
2023-03-14T05:19:45.908Z,1.63
2023-03-14T05:25:09.567Z,0.60
2023-03-14T05:30:37.852Z,1.07
2023-03-14T05:36:02.605Z,0.97
2023-03-14T05:41:27.571Z,1.03
2023-03-14T05:46:53.254Z,0.93
2023-03-14T05:52:13.228Z,1.10
2023-03-14T05:57:36.430Z,1.33
2023-03-14T06:03:02.913Z,1.07
2023-03-14T06:08:33.762Z,1.47
2023-03-14T06:13:38.940Z,1.97
2023-03-14T06:18:50.588Z,4.97
2023-03-14T06:24:00.874Z,2.13
2023-03-14T06:29:08.620Z,2.43
2023-03-14T06:34:13.630Z,2.70
2023-03-14T06:39:21.806Z,3.00
2023-03-14T06:44:46.283Z,3.90
2023-03-14T06:50:04.021Z,3.80
2023-03-14T06:55:14.872Z,2.40
2023-03-14T07:00:24.485Z,4.40
2023-03-14T07:05:34.475Z,2.87
2023-03-14T07:10:42.212Z,2.33
2023-03-14T07:15:48.800Z,2.40
2023-03-14T07:20:54.028Z,2.73
2023-03-14T07:26:01.882Z,5.50
2023-03-14T07:31:10.305Z,2.27
2023-03-14T07:36:44.718Z,4.73
2023-03-14T07:42:00.395Z,3.20
2023-03-14T07:47:21.648Z,2.30
2023-03-14T07:52:27.085Z,2.07
2023-03-14T07:57:34.763Z,4.97
2023-03-14T08:02:42.076Z,3.33
2023-03-14T08:07:47.240Z,4.03
2023-03-14T08:13:00.587Z,3.27
2023-03-14T08:18:05.969Z,1.70
2023-03-14T08:23:14.218Z,1.73
2023-03-14T08:28:22.741Z,5.20
2023-03-14T08:33:30.899Z,1.10
2023-03-14T08:38:38.077Z,3.17
2023-03-14T08:43:47.915Z,1.10
2023-03-14T08:48:55.832Z,1.70
2023-03-14T08:54:09.256Z,2.00
2023-03-14T08:59:24.486Z,1.60
2023-03-14T09:04:30.364Z,1.70
2023-03-14T09:09:35.318Z,1.70
2023-03-14T09:14:45.478Z,1.77
2023-03-14T09:19:52.852Z,1.57
2023-03-14T09:25:00.517Z,1.93
2023-03-14T09:30:14.658Z,1.43
2023-03-14T09:35:19.719Z,3.03
2023-03-14T09:40:28.182Z,2.87
2023-03-14T09:45:41.517Z,1.50
2023-03-14T09:50:57.824Z,2.00
2023-03-14T09:56:04.061Z,1.80
2023-03-14T10:01:20.449Z,1.93
2023-03-14T10:06:31.608Z,1.67
2023-03-14T10:11:40.052Z,1.67
2023-03-14T10:16:50.816Z,1.10
2023-03-14T10:21:58.924Z,2.90
2023-03-14T10:27:07.865Z,2.63
2023-03-14T10:32:46.327Z,1.23
2023-03-14T10:38:05.346Z,1.30
2023-03-14T10:43:17.531Z,1.13
2023-03-14T10:48:29.233Z,1.17
2023-03-14T10:53:46.504Z,1.70
2023-03-14T10:59:01.900Z,1.70
2023-03-14T11:04:19.548Z,0.80
2023-03-14T11:09:32.966Z,1.70
2023-03-14T11:14:43.392Z,2.40
2023-03-14T11:20:03.343Z,2.00
2023-03-14T11:25:27.929Z,1.37
2023-03-14T11:30:41.897Z,1.10
2023-03-14T11:35:53.538Z,0.90
2023-03-14T11:41:04.810Z,1.07
2023-03-14T11:46:16.653Z,0.80
2023-03-14T11:51:28.942Z,3.40
2023-03-14T11:56:49.284Z,1.00
2023-03-14T12:01:58.806Z,1.00
2023-03-14T12:07:07.361Z,1.63
2023-03-14T12:12:28.357Z,0.70
2023-03-14T12:17:41.290Z,0.93
2023-03-14T12:22:49.048Z,0.80
2023-03-14T12:28:20.048Z,0.90
2023-03-14T12:33:37.150Z,0.67
2023-03-14T12:39:06.793Z,0.80
2023-03-14T12:44:41.745Z,0.60
2023-03-14T12:49:57.041Z,0.80
2023-03-14T12:55:07.927Z,0.60
2023-03-14T13:00:25.509Z,0.90
2023-03-14T13:05:33.785Z,1.00
2023-03-14T13:10:57.519Z,0.90
2023-03-14T13:16:05.711Z,0.80
2023-03-14T13:21:18.638Z,0.80
2023-03-14T13:26:29.557Z,0.73
2023-03-14T13:32:03.859Z,0.40
2023-03-14T13:37:41.937Z,0.60
2023-03-14T13:42:47.820Z,0.50
2023-03-14T13:48:03.604Z,0.70
2023-03-14T13:53:19.207Z,0.53
2023-03-14T13:58:31.068Z,0.70
2023-03-14T14:03:41.121Z,0.60
2023-03-14T14:08:54.066Z,0.50
2023-03-14T14:13:59.476Z,0.60
2023-03-14T14:19:08.542Z,0.50
2023-03-14T14:24:19.713Z,0.50
2023-03-14T14:29:33.948Z,0.40
2023-03-14T14:34:50.645Z,0.40
2023-03-14T14:40:01.374Z,0.40
2023-03-14T14:45:07.840Z,0.40
2023-03-14T14:50:32.900Z,0.70
2023-03-14T14:55:46.584Z,0.60
2023-03-14T15:00:58.720Z,0.53
2023-03-14T15:06:03.795Z,0.37
2023-03-14T15:11:19.766Z,0.50
2023-03-14T15:16:27.861Z,0.50
2023-03-14T15:21:35.444Z,0.50
2023-03-14T15:26:45.439Z,0.80
2023-03-14T15:31:50.494Z,0.80
2023-03-14T15:36:57.815Z,0.70
2023-03-14T15:42:05.623Z,0.40
2023-03-14T15:47:12.634Z,0.57
2023-03-14T15:52:17.739Z,0.50
2023-03-14T15:57:25.975Z,0.50
2023-03-14T16:02:33.453Z,0.63
2023-03-14T16:07:38.527Z,0.63
2023-03-14T16:12:48.075Z,0.50
2023-03-14T16:17:57.666Z,0.50
2023-03-14T16:23:03.052Z,0.53
2023-03-14T16:28:12.221Z,0.67
2023-03-14T16:33:19.845Z,0.70
2023-03-14T16:38:30.391Z,0.50
2023-03-14T16:43:40.033Z,0.63
2023-03-14T16:48:45.134Z,0.70
2023-03-14T16:53:52.217Z,2.97
2023-03-14T16:59:00.000Z,0.60
2023-03-14T17:04:09.465Z,0.70
2023-03-14T17:09:15.252Z,0.63
2023-03-14T17:14:24.390Z,0.67
2023-03-14T17:19:32.305Z,0.50
2023-03-14T17:24:40.543Z,0.70
2023-03-14T17:29:52.437Z,0.60
2023-03-14T17:34:57.352Z,0.70
2023-03-14T17:40:04.464Z,1.20
2023-03-14T17:45:15.839Z,0.90
2023-03-14T17:50:21.443Z,1.87
2023-03-14T17:55:26.731Z,1.93
2023-03-14T18:00:34.576Z,5.33
2023-03-14T18:05:41.736Z,1.60
2023-03-14T18:10:46.988Z,1.77
2023-03-14T18:15:55.013Z,1.70
2023-03-14T18:21:00.674Z,3.03
2023-03-14T18:26:09.662Z,3.10
2023-03-14T18:31:22.348Z,2.57
2023-03-14T18:36:27.393Z,2.27
2023-03-14T18:41:32.618Z,2.20
2023-03-14T18:46:40.284Z,2.17
2023-03-14T18:51:46.118Z,1.70
2023-03-14T18:56:52.045Z,1.97
2023-03-14T19:02:00.425Z,2.07
2023-03-14T19:07:06.701Z,1.97
2023-03-14T19:12:22.215Z,1.90
2023-03-14T19:17:31.519Z,1.83
2023-03-14T19:22:37.117Z,1.70
2023-03-14T19:27:43.117Z,1.97
2023-03-14T19:32:53.272Z,1.77
2023-03-14T19:38:01.558Z,1.87
2023-03-14T19:43:08.296Z,1.67
2023-03-14T19:48:19.581Z,2.53
2023-03-14T19:53:26.542Z,1.80
2023-03-14T19:58:32.373Z,2.13
2023-03-14T20:03:44.467Z,2.07
2023-03-14T20:08:54.728Z,2.53
2023-03-14T20:14:00.755Z,2.47
2023-03-14T20:19:11.002Z,3.03
2023-03-14T20:24:18.850Z,2.40
2023-03-14T20:29:28.752Z,2.63
2023-03-14T20:34:41.977Z,2.27
2023-03-14T20:39:47.753Z,3.17
2023-03-14T20:44:55.537Z,3.00
2023-03-14T20:50:04.809Z,3.13
2023-03-14T20:55:12.665Z,2.80
2023-03-14T21:00:19.049Z,3.03
2023-03-14T21:05:28.856Z,2.87
2023-03-14T21:10:34.472Z,2.90
2023-03-14T21:15:40.880Z,3.03
2023-03-14T21:20:50.236Z,2.80
2023-03-14T21:25:58.160Z,2.97
2023-03-14T21:31:11.014Z,2.30
2023-03-14T21:36:21.601Z,3.13
2023-03-14T21:41:26.501Z,3.20
2023-03-14T21:46:36.633Z,2.87
2023-03-14T21:51:46.097Z,2.50
2023-03-14T21:56:51.245Z,2.60
2023-03-14T22:01:56.524Z,3.77
2023-03-14T22:07:05.320Z,4.27
2023-03-14T22:12:11.026Z,2.40
2023-03-14T22:17:16.290Z,2.70
2023-03-14T22:22:24.121Z,2.73
2023-03-14T22:27:29.160Z,3.17
2023-03-14T22:32:36.237Z,3.00
2023-03-14T22:37:43.835Z,3.00
2023-03-14T22:42:49.731Z,3.00
2023-03-14T22:47:55.234Z,2.63
2023-03-14T22:53:03.509Z,2.60
2023-03-14T22:58:10.566Z,2.90
2023-03-14T23:03:17.613Z,2.93
2023-03-14T23:08:26.223Z,2.80
2023-03-14T23:13:34.263Z,2.60
2023-03-14T23:18:41.690Z,2.53
2023-03-14T23:23:50.901Z,2.53
2023-03-14T23:28:57.221Z,3.47
2023-03-14T23:34:02.514Z,2.43
2023-03-14T23:39:11.536Z,2.83
2023-03-14T23:44:16.560Z,2.40
2023-03-14T23:49:21.780Z,2.70
2023-03-14T23:54:31.548Z,2.87
2023-03-14T23:59:37.550Z,2.67
